sensor_id;sensor_type;location;lat;lon;timestamp;pressure;altitude;pressure_sealevel;temperature;humidity
51249;BME280;39642;47.556;18.728;2023-04-05T00:01:31;99877.47;;;20.13;23.31
51249;BME280;39642;47.556;18.728;2023-04-05T00:03:58;99873.88;;;20.14;23.30
51249;BME280;39642;47.556;18.728;2023-04-05T00:06:29;99873.88;;;20.14;23.32
51249;BME280;39642;47.556;18.728;2023-04-05T00:09:01;99870.28;;;20.15;23.28
51249;BME280;39642;47.556;18.728;2023-04-05T00:11:30;99864.16;;;20.14;23.29
51249;BME280;39642;47.556;18.728;2023-04-05T00:13:58;99867.66;;;20.15;23.42
51249;BME280;39642;47.556;18.728;2023-04-05T00:16:25;99867.66;;;20.15;23.24
51249;BME280;39642;47.556;18.728;2023-04-05T00:18:52;99864.06;;;20.16;23.17
51249;BME280;39642;47.556;18.728;2023-04-05T00:21:19;99863.13;;;20.17;23.24
51249;BME280;39642;47.556;18.728;2023-04-05T00:23:52;99857.75;;;20.18;23.19
51249;BME280;39642;47.556;18.728;2023-04-05T00:26:20;99858.59;;;20.19;23.09
51249;BME280;39642;47.556;18.728;2023-04-05T00:28:47;99859.47;;;20.20;23.17
51249;BME280;39642;47.556;18.728;2023-04-05T00:31:13;99855.97;;;20.19;23.25
51249;BME280;39642;47.556;18.728;2023-04-05T00:33:39;99854.16;;;20.20;23.21
51249;BME280;39642;47.556;18.728;2023-04-05T00:36:13;99859.47;;;20.20;23.17
51249;BME280;39642;47.556;18.728;2023-04-05T00:38:40;99861.25;;;20.19;23.19
51249;BME280;39642;47.556;18.728;2023-04-05T00:41:06;99860.34;;;20.20;23.28
51249;BME280;39642;47.556;18.728;2023-04-05T00:43:32;99863.06;;;20.18;23.21
51249;BME280;39642;47.556;18.728;2023-04-05T00:45:58;99858.72;;;20.17;23.29
51249;BME280;39642;47.556;18.728;2023-04-05T00:48:25;99857.75;;;20.18;23.29
51249;BME280;39642;47.556;18.728;2023-04-05T00:50:51;99850.88;;;20.16;23.30
51249;BME280;39642;47.556;18.728;2023-04-05T00:53:18;99853.50;;;20.16;23.43
51249;BME280;39642;47.556;18.728;2023-04-05T00:55:45;99853.50;;;20.16;23.23
51249;BME280;39642;47.556;18.728;2023-04-05T00:58:16;99859.72;;;20.15;23.38
51249;BME280;39642;47.556;18.728;2023-04-05T01:01:20;99858.88;;;20.14;23.47
51249;BME280;39642;47.556;18.728;2023-04-05T01:03:56;99851.03;;;20.13;23.50
51249;BME280;39642;47.556;18.728;2023-04-05T01:09:27;99846.69;;;20.12;23.56
51249;BME280;39642;47.556;18.728;2023-04-05T01:12:00;99842.34;;;20.11;23.38
51249;BME280;39642;47.556;18.728;2023-04-05T01:14:27;99848.47;;;20.11;23.46
51249;BME280;39642;47.556;18.728;2023-04-05T01:16:53;99845.06;;;20.09;23.32
51249;BME280;39642;47.556;18.728;2023-04-05T01:19:26;99842.34;;;20.11;23.39
51249;BME280;39642;47.556;18.728;2023-04-05T01:22:24;99839.69;;;20.11;23.37
51249;BME280;39642;47.556;18.728;2023-04-05T01:28:32;99836.09;;;20.12;23.45
51249;BME280;39642;47.556;18.728;2023-04-05T01:30:40;99840.47;;;20.13;23.38
51249;BME280;39642;47.556;18.728;2023-04-05T01:33:25;99835.19;;;20.13;23.28
51249;BME280;39642;47.556;18.728;2023-04-05T01:38:38;99834.03;;;20.17;23.28
51249;BME280;39642;47.556;18.728;2023-04-05T01:41:04;99831.41;;;20.17;23.22
51249;BME280;39642;47.556;18.728;2023-04-05T01:43:31;99841.91;;;20.18;23.17
51249;BME280;39642;47.556;18.728;2023-04-05T01:45:57;99835.66;;;20.20;22.99
51249;BME280;39642;47.556;18.728;2023-04-05T01:48:22;99835.59;;;20.21;23.07
51249;BME280;39642;47.556;18.728;2023-04-05T01:50:48;99837.31;;;20.22;23.09
51249;BME280;39642;47.556;18.728;2023-04-05T01:53:15;99838.16;;;20.23;23.08
51249;BME280;39642;47.556;18.728;2023-04-05T01:55:40;99844.34;;;20.22;23.12
51249;BME280;39642;47.556;18.728;2023-04-05T01:58:06;99850.53;;;20.22;23.11
51249;BME280;39642;47.556;18.728;2023-04-05T02:00:33;99845.25;;;20.22;23.20
51249;BME280;39642;47.556;18.728;2023-04-05T02:02:59;99845.25;;;20.22;23.12
51249;BME280;39642;47.556;18.728;2023-04-05T02:05:25;99844.47;;;20.20;23.21
51249;BME280;39642;47.556;18.728;2023-04-05T02:07:51;99843.59;;;20.20;23.06
51249;BME280;39642;47.556;18.728;2023-04-05T02:10:18;99847.13;;;20.20;23.07
51249;BME280;39642;47.556;18.728;2023-04-05T02:12:44;99841.97;;;20.17;23.09
51249;BME280;39642;47.556;18.728;2023-04-05T02:15:10;99837.66;;;20.16;23.03
51249;BME280;39642;47.556;18.728;2023-04-05T02:17:37;99843.78;;;20.16;23.16
51249;BME280;39642;47.556;18.728;2023-04-05T02:20:11;99843.84;;;20.15;23.21
51249;BME280;39642;47.556;18.728;2023-04-05T02:22:39;99844.81;;;20.14;23.04
51249;BME280;39642;47.556;18.728;2023-04-05T02:25:06;99836.88;;;20.14;23.03
51249;BME280;39642;47.556;18.728;2023-04-05T02:27:33;99836.09;;;20.12;23.15
51249;BME280;39642;47.556;18.728;2023-04-05T02:30:00;99836.09;;;20.12;23.18
51249;BME280;39642;47.556;18.728;2023-04-05T02:32:25;99829.12;;;20.11;23.18
51249;BME280;39642;47.556;18.728;2023-04-05T02:34:51;99833.53;;;20.10;23.34
51249;BME280;39642;47.556;18.728;2023-04-05T02:37:18;99830.06;;;20.10;23.13
51249;BME280;39642;47.556;18.728;2023-04-05T02:39:45;99824.75;;;20.10;23.10
51249;BME280;39642;47.556;18.728;2023-04-05T02:42:10;99827.41;;;20.10;23.16
51249;BME280;39642;47.556;18.728;2023-04-05T02:44:36;99817.78;;;20.09;23.12
51249;BME280;39642;47.556;18.728;2023-04-05T02:47:02;99818.63;;;20.09;23.08
51249;BME280;39642;47.556;18.728;2023-04-05T02:49:28;99822.12;;;20.10;23.11
51249;BME280;39642;47.556;18.728;2023-04-05T02:51:54;99818.56;;;20.11;23.15
51249;BME280;39642;47.556;18.728;2023-04-05T02:54:23;99817.59;;;20.12;22.98
51249;BME280;39642;47.556;18.728;2023-04-05T02:56:49;99810.50;;;20.12;22.95
51249;BME280;39642;47.556;18.728;2023-04-05T02:59:15;99817.53;;;20.13;23.12
51249;BME280;39642;47.556;18.728;2023-04-05T03:01:42;99818.37;;;20.14;22.92
51249;BME280;39642;47.556;18.728;2023-04-05T03:04:09;99822.69;;;20.15;22.86
51249;BME280;39642;47.556;18.728;2023-04-05T03:06:37;99822.69;;;20.15;22.92
51249;BME280;39642;47.556;18.728;2023-04-05T03:09:03;99832.34;;;20.16;22.88
51249;BME280;39642;47.556;18.728;2023-04-05T03:11:30;99818.19;;;20.17;22.79
51249;BME280;39642;47.556;18.728;2023-04-05T03:13:56;99824.34;;;20.17;22.95
51249;BME280;39642;47.556;18.728;2023-04-05T03:16:22;99828.75;;;20.17;22.81
51249;BME280;39642;47.556;18.728;2023-04-05T03:18:48;99823.47;;;20.17;22.92
51249;BME280;39642;47.556;18.728;2023-04-05T03:21:14;99827.91;;;20.16;22.95
51249;BME280;39642;47.556;18.728;2023-04-05T03:23:42;99832.34;;;20.16;23.04
51249;BME280;39642;47.556;18.728;2023-04-05T03:26:11;99822.62;;;20.16;22.89
51249;BME280;39642;47.556;18.728;2023-04-05T03:28:40;99824.44;;;20.16;22.98
51249;BME280;39642;47.556;18.728;2023-04-05T03:31:10;99827.06;;;20.16;23.11
51249;BME280;39642;47.556;18.728;2023-04-05T03:33:36;99833.28;;;20.15;22.93
51249;BME280;39642;47.556;18.728;2023-04-05T03:36:03;99836.03;;;20.13;23.00
51249;BME280;39642;47.556;18.728;2023-04-05T03:38:29;99842.25;;;20.12;22.90
51249;BME280;39642;47.556;18.728;2023-04-05T03:40:58;99837.81;;;20.13;23.07
51249;BME280;39642;47.556;18.728;2023-04-05T03:43:23;99842.25;;;20.12;23.05
51249;BME280;39642;47.556;18.728;2023-04-05T03:45:49;99845.00;;;20.11;22.95
51249;BME280;39642;47.556;18.728;2023-04-05T03:48:15;99839.78;;;20.09;23.01
51249;BME280;39642;47.556;18.728;2023-04-05T03:50:46;99837.12;;;20.09;22.87
51249;BME280;39642;47.556;18.728;2023-04-05T03:53:12;99843.34;;;20.08;22.90
51249;BME280;39642;47.556;18.728;2023-04-05T03:55:38;99846.09;;;20.07;22.94
51249;BME280;39642;47.556;18.728;2023-04-05T03:58:04;99843.44;;;20.07;22.90
51249;BME280;39642;47.556;18.728;2023-04-05T04:00:30;99842.59;;;20.06;23.03
51249;BME280;39642;47.556;18.728;2023-04-05T04:02:56;99841.84;;;20.04;23.06
51249;BME280;39642;47.556;18.728;2023-04-05T04:05:22;99846.25;;;20.04;22.95
51249;BME280;39642;47.556;18.728;2023-04-05T04:07:48;99842.75;;;20.03;22.97
51249;BME280;39642;47.556;18.728;2023-04-05T04:10:15;99844.56;;;20.03;22.91
51249;BME280;39642;47.556;18.728;2023-04-05T04:12:44;99852.47;;;20.03;22.85
51249;BME280;39642;47.556;18.728;2023-04-05T04:15:11;99849.06;;;20.01;22.85
51249;BME280;39642;47.556;18.728;2023-04-05T04:17:37;99854.34;;;20.01;22.84
51249;BME280;39642;47.556;18.728;2023-04-05T04:20:04;99853.50;;;20.00;22.99
51249;BME280;39642;47.556;18.728;2023-04-05T04:22:37;99853.50;;;20.00;22.80
51249;BME280;39642;47.556;18.728;2023-04-05T04:25:09;99860.59;;;20.00;22.78
51249;BME280;39642;47.556;18.728;2023-04-05T04:27:39;99853.59;;;19.99;22.61
51249;BME280;39642;47.556;18.728;2023-04-05T04:30:08;99855.38;;;19.98;22.69
51249;BME280;39642;47.556;18.728;2023-04-05T04:32:38;99856.28;;;19.97;22.69
51249;BME280;39642;47.556;18.728;2023-04-05T04:35:27;99861.59;;;19.97;22.75
51249;BME280;39642;47.556;18.728;2023-04-05T04:37:58;99859.81;;;19.98;22.71
51249;BME280;39642;47.556;18.728;2023-04-05T04:42:54;99861.69;;;19.95;22.72
51249;BME280;39642;47.556;18.728;2023-04-05T04:45:23;99866.13;;;19.95;22.69
51249;BME280;39642;47.556;18.728;2023-04-05T04:47:49;99857.31;;;19.94;22.71
51249;BME280;39642;47.556;18.728;2023-04-05T04:50:19;99861.69;;;19.95;22.61
51249;BME280;39642;47.556;18.728;2023-04-05T04:52:46;99868.78;;;19.95;22.65
51249;BME280;39642;47.556;18.728;2023-04-05T04:55:12;99859.13;;;19.94;22.73
51249;BME280;39642;47.556;18.728;2023-04-05T04:57:39;99867.91;;;19.94;22.67
51249;BME280;39642;47.556;18.728;2023-04-05T05:00:09;99868.84;;;19.93;22.64
51249;BME280;39642;47.556;18.728;2023-04-05T05:02:42;99866.22;;;19.93;22.65
51249;BME280;39642;47.556;18.728;2023-04-05T05:05:09;99874.97;;;19.94;22.70
51249;BME280;39642;47.556;18.728;2023-04-05T05:07:37;99862.72;;;19.93;22.94
51249;BME280;39642;47.556;18.728;2023-04-05T05:10:03;99869.78;;;19.92;22.78
51249;BME280;39642;47.556;18.728;2023-04-05T05:12:29;99865.38;;;19.93;22.70
51249;BME280;39642;47.556;18.728;2023-04-05T05:14:56;99874.13;;;19.93;22.66
51249;BME280;39642;47.556;18.728;2023-04-05T05:17:22;99873.28;;;19.93;22.66
51249;BME280;39642;47.556;18.728;2023-04-05T05:19:50;99871.50;;;19.93;22.59
51249;BME280;39642;47.556;18.728;2023-04-05T05:22:17;99869.78;;;19.92;22.75
51249;BME280;39642;47.556;18.728;2023-04-05T05:24:46;99878.47;;;19.94;22.81
51249;BME280;39642;47.556;18.728;2023-04-05T05:27:13;99880.19;;;19.95;22.84
51249;BME280;39642;47.556;18.728;2023-04-05T05:29:39;99877.56;;;19.95;23.15
51249;BME280;39642;47.556;18.728;2023-04-05T05:32:05;99880.19;;;19.95;23.09
51249;BME280;39642;47.556;18.728;2023-04-05T05:34:32;99883.69;;;19.96;22.91
51249;BME280;39642;47.556;18.728;2023-04-05T05:36:58;99883.69;;;19.96;22.85
51249;BME280;39642;47.556;18.728;2023-04-05T05:39:24;99881.88;;;19.96;23.23
51249;BME280;39642;47.556;18.728;2023-04-05T05:41:50;99889.81;;;19.96;23.21
51249;BME280;39642;47.556;18.728;2023-04-05T05:44:15;99879.25;;;19.96;23.27
51249;BME280;39642;47.556;18.728;2023-04-05T05:46:41;99874.81;;;19.97;23.22
51249;BME280;39642;47.556;18.728;2023-04-05T05:49:07;99882.72;;;19.97;23.19
51249;BME280;39642;47.556;18.728;2023-04-05T05:51:33;99886.25;;;19.98;23.35
51249;BME280;39642;47.556;18.728;2023-04-05T05:54:00;99887.94;;;19.99;23.51
51249;BME280;39642;47.556;18.728;2023-04-05T05:56:26;99883.50;;;19.99;23.29
51249;BME280;39642;47.556;18.728;2023-04-05T05:58:52;99882.59;;;20.00;23.16
51249;BME280;39642;47.556;18.728;2023-04-05T06:01:18;99887.88;;;20.00;23.25
51249;BME280;39642;47.556;18.728;2023-04-05T06:03:47;99886.06;;;20.01;23.23
51249;BME280;39642;47.556;18.728;2023-04-05T06:06:14;99886.06;;;20.01;23.29
51249;BME280;39642;47.556;18.728;2023-04-05T06:08:40;99884.28;;;20.01;23.29
51249;BME280;39642;47.556;18.728;2023-04-05T06:11:06;99887.75;;;20.02;23.15
51249;BME280;39642;47.556;18.728;2023-04-05T06:13:32;99881.56;;;20.03;23.08
51249;BME280;39642;47.556;18.728;2023-04-05T06:16:00;99880.59;;;20.04;23.19
51249;BME280;39642;47.556;18.728;2023-04-05T06:18:25;99881.47;;;20.04;23.08
51249;BME280;39642;47.556;18.728;2023-04-05T06:20:54;99882.31;;;20.05;23.29
51249;BME280;39642;47.556;18.728;2023-04-05T06:23:20;99881.38;;;20.06;23.31
51249;BME280;39642;47.556;18.728;2023-04-05T06:25:46;99878.72;;;20.06;23.18
51249;BME280;39642;47.556;18.728;2023-04-05T06:28:12;99883.09;;;20.07;23.25
51249;BME280;39642;47.556;18.728;2023-04-05T06:30:37;99888.28;;;20.08;23.19
51249;BME280;39642;47.556;18.728;2023-04-05T06:33:03;99883.09;;;20.07;23.34
51249;BME280;39642;47.556;18.728;2023-04-05T06:35:29;99881.31;;;20.07;23.31
51249;BME280;39642;47.556;18.728;2023-04-05T06:37:55;99885.56;;;20.10;23.10
51249;BME280;39642;47.556;18.728;2023-04-05T06:40:21;99875.94;;;20.09;23.21
51249;BME280;39642;47.556;18.728;2023-04-05T06:42:47;99882.06;;;20.09;23.25
51249;BME280;39642;47.556;18.728;2023-04-05T06:45:12;99885.56;;;20.10;23.17
51249;BME280;39642;47.556;18.728;2023-04-05T06:47:39;99889.06;;;20.10;23.18
51249;BME280;39642;47.556;18.728;2023-04-05T06:50:06;99884.53;;;20.12;23.19
51249;BME280;39642;47.556;18.728;2023-04-05T06:52:33;99888.06;;;20.13;23.14
51249;BME280;39642;47.556;18.728;2023-04-05T06:55:00;99884.38;;;20.15;23.17
51249;BME280;39642;47.556;18.728;2023-04-05T06:57:26;99888.72;;;20.16;23.30
51249;BME280;39642;47.556;18.728;2023-04-05T06:59:53;99884.28;;;20.17;23.24
51249;BME280;39642;47.556;18.728;2023-04-05T07:02:20;99881.47;;;20.20;23.05
51249;BME280;39642;47.556;18.728;2023-04-05T07:04:46;99880.47;;;20.23;23.04
51249;BME280;39642;47.556;18.728;2023-04-05T07:07:13;99888.31;;;20.24;23.04
51249;BME280;39642;47.556;18.728;2023-04-05T07:09:39;99886.41;;;20.26;23.08
51249;BME280;39642;47.556;18.728;2023-04-05T07:12:06;99887.19;;;20.28;22.89
51249;BME280;39642;47.556;18.728;2023-04-05T07:14:35;99884.47;;;20.30;22.89
51249;BME280;39642;47.556;18.728;2023-04-05T07:17:03;99882.59;;;20.32;22.87
51249;BME280;39642;47.556;18.728;2023-04-05T07:19:29;99893.09;;;20.33;22.93
51249;BME280;39642;47.556;18.728;2023-04-05T07:21:55;99885.91;;;20.35;22.81
51249;BME280;39642;47.556;18.728;2023-04-05T07:24:21;99893.75;;;20.37;22.97
51249;BME280;39642;47.556;18.728;2023-04-05T07:26:47;99882.25;;;20.38;22.79
51249;BME280;39642;47.556;18.728;2023-04-05T07:29:13;99889.22;;;20.39;22.93
51249;BME280;39642;47.556;18.728;2023-04-05T07:31:39;99889.16;;;20.41;22.95
51249;BME280;39642;47.556;18.728;2023-04-05T07:34:05;99894.31;;;20.42;22.99
51249;BME280;39642;47.556;18.728;2023-04-05T07:36:31;99886.41;;;20.42;22.92
51249;BME280;39642;47.556;18.728;2023-04-05T07:38:58;99896.91;;;20.44;22.85
51249;BME280;39642;47.556;18.728;2023-04-05T07:41:24;99885.41;;;20.45;23.07
51249;BME280;39642;47.556;18.728;2023-04-05T07:43:51;99887.16;;;20.44;22.83
51249;BME280;39642;47.556;18.728;2023-04-05T07:46:17;99885.41;;;20.45;23.11
51249;BME280;39642;47.556;18.728;2023-04-05T07:48:45;99888.03;;;20.45;22.85
51249;BME280;39642;47.556;18.728;2023-04-05T07:51:12;99884.44;;;20.46;22.89
51249;BME280;39642;47.556;18.728;2023-04-05T07:53:38;99888.81;;;20.47;23.13
51249;BME280;39642;47.556;18.728;2023-04-05T07:56:05;99888.81;;;20.47;23.37
51249;BME280;39642;47.556;18.728;2023-04-05T07:58:32;99880.75;;;20.48;23.29
51249;BME280;39642;47.556;18.728;2023-04-05T08:01:02;99875.41;;;20.50;23.28
51249;BME280;39642;47.556;18.728;2023-04-05T08:03:29;99880.69;;;20.50;23.32
51249;BME280;39642;47.556;18.728;2023-04-05T08:05:55;99885.03;;;20.51;23.21
51249;BME280;39642;47.556;18.728;2023-04-05T08:08:23;99882.38;;;20.51;23.03
51249;BME280;39642;47.556;18.728;2023-04-05T08:10:50;99881.53;;;20.50;23.25
51249;BME280;39642;47.556;18.728;2023-04-05T08:13:15;99889.47;;;20.50;23.23
51249;BME280;39642;47.556;18.728;2023-04-05T08:15:41;99880.69;;;20.50;23.27
51249;BME280;39642;47.556;18.728;2023-04-05T08:18:07;99881.53;;;20.50;23.31
51249;BME280;39642;47.556;18.728;2023-04-05T08:20:33;99884.19;;;20.50;23.29
51249;BME280;39642;47.556;18.728;2023-04-05T08:23:04;99884.19;;;20.50;23.33
51249;BME280;39642;47.556;18.728;2023-04-05T08:25:30;99877.09;;;20.51;23.20
51249;BME280;39642;47.556;18.728;2023-04-05T08:27:56;99881.53;;;20.50;23.10
51249;BME280;39642;47.556;18.728;2023-04-05T08:30:22;99874.44;;;20.51;23.27
51249;BME280;39642;47.556;18.728;2023-04-05T08:32:48;99878.87;;;20.50;23.19
51249;BME280;39642;47.556;18.728;2023-04-05T08:35:14;99880.69;;;20.50;23.27
51249;BME280;39642;47.556;18.728;2023-04-05T08:37:40;99869.25;;;20.49;23.32
51249;BME280;39642;47.556;18.728;2023-04-05T08:40:07;99879.84;;;20.49;23.27
51249;BME280;39642;47.556;18.728;2023-04-05T08:42:35;99877.19;;;20.49;23.19
51249;BME280;39642;47.556;18.728;2023-04-05T08:45:03;99880.69;;;20.50;23.02
51249;BME280;39642;47.556;18.728;2023-04-05T08:47:29;99874.56;;;20.49;23.16
51249;BME280;39642;47.556;18.728;2023-04-05T08:49:55;99878.03;;;20.50;23.11
51249;BME280;39642;47.556;18.728;2023-04-05T08:52:21;99871.91;;;20.49;22.95
51249;BME280;39642;47.556;18.728;2023-04-05T08:54:47;99875.41;;;20.50;22.83
51249;BME280;39642;47.556;18.728;2023-04-05T08:57:13;99870.09;;;20.50;22.90
51249;BME280;39642;47.556;18.728;2023-04-05T08:59:40;99874.44;;;20.51;22.62
51249;BME280;39642;47.556;18.728;2023-04-05T09:02:16;99863.03;;;20.50;22.70
51249;BME280;39642;47.556;18.728;2023-04-05T09:04:44;99863.03;;;20.50;22.82
51249;BME280;39642;47.556;18.728;2023-04-05T09:07:13;99862.16;;;20.50;22.70
51249;BME280;39642;47.556;18.728;2023-04-05T09:09:41;99866.50;;;20.51;22.94
51249;BME280;39642;47.556;18.728;2023-04-05T09:12:08;99866.50;;;20.51;23.00
51249;BME280;39642;47.556;18.728;2023-04-05T09:14:37;99867.47;;;20.50;22.90
51249;BME280;39642;47.556;18.728;2023-04-05T09:17:03;99863.87;;;20.51;22.85
51249;BME280;39642;47.556;18.728;2023-04-05T09:19:29;99854.16;;;20.51;22.75
51249;BME280;39642;47.556;18.728;2023-04-05T09:22:05;99863.03;;;20.50;23.11
51249;BME280;39642;47.556;18.728;2023-04-05T09:24:42;99852.44;;;20.50;23.17
51249;BME280;39642;47.556;18.728;2023-04-05T09:27:11;99856.03;;;20.49;23.18
51249;BME280;39642;47.556;18.728;2023-04-05T09:29:39;99860.44;;;20.49;23.06
51249;BME280;39642;47.556;18.728;2023-04-05T09:32:07;99860.44;;;20.49;23.08
51249;BME280;39642;47.556;18.728;2023-04-05T09:34:34;99861.31;;;20.49;23.16
51249;BME280;39642;47.556;18.728;2023-04-05T09:37:15;99856.03;;;20.49;23.21
51249;BME280;39642;47.556;18.728;2023-04-05T09:39:42;99851.66;;;20.48;23.21
51249;BME280;39642;47.556;18.728;2023-04-05T09:42:10;99854.31;;;20.48;23.21
51249;BME280;39642;47.556;18.728;2023-04-05T09:44:57;99842.88;;;20.48;23.00
51249;BME280;39642;47.556;18.728;2023-04-05T09:47:32;99852.62;;;20.47;23.26
51249;BME280;39642;47.556;18.728;2023-04-05T09:50:03;99846.50;;;20.47;23.26
51249;BME280;39642;47.556;18.728;2023-04-05T09:52:43;99840.31;;;20.46;23.20
51249;BME280;39642;47.556;18.728;2023-04-05T09:55:09;99839.41;;;20.47;23.18
51249;BME280;39642;47.556;18.728;2023-04-05T09:57:37;99841.19;;;20.47;22.99
51249;BME280;39642;47.556;18.728;2023-04-05T10:00:04;99854.31;;;20.48;22.83
51249;BME280;39642;47.556;18.728;2023-04-05T10:02:38;99845.53;;;20.48;22.81
51249;BME280;39642;47.556;18.728;2023-04-05T10:05:10;99824.38;;;20.48;22.92
51249;BME280;39642;47.556;18.728;2023-04-05T10:07:38;99834.88;;;20.49;22.90
51249;BME280;39642;47.556;18.728;2023-04-05T10:10:05;99825.16;;;20.50;22.77
51249;BME280;39642;47.556;18.728;2023-04-05T10:12:32;99833.91;;;20.50;22.89
51249;BME280;39642;47.556;18.728;2023-04-05T10:14:58;99831.28;;;20.50;22.99
51249;BME280;39642;47.556;18.728;2023-04-05T10:17:38;99826.84;;;20.51;22.76
51249;BME280;39642;47.556;18.728;2023-04-05T10:20:16;99827.72;;;20.51;23.04
51249;BME280;39642;47.556;18.728;2023-04-05T10:25:48;99814.47;;;20.51;22.99
51249;BME280;39642;47.556;18.728;2023-04-05T10:28:33;99824.09;;;20.52;22.98
51249;BME280;39642;47.556;18.728;2023-04-05T10:31:24;99820.63;;;20.52;23.17
51249;BME280;39642;47.556;18.728;2023-04-05T10:34:04;99812.69;;;20.52;23.06
51249;BME280;39642;47.556;18.728;2023-04-05T10:41:59;99807.47;;;20.50;23.00
51249;BME280;39642;47.556;18.728;2023-04-05T10:44:29;99803.03;;;20.51;23.23
51249;BME280;39642;47.556;18.728;2023-04-05T10:46:56;99808.31;;;20.51;23.28
51249;BME280;39642;47.556;18.728;2023-04-05T10:49:47;99805.66;;;20.51;23.10
51249;BME280;39642;47.556;18.728;2023-04-05T10:52:15;99810.97;;;20.51;23.21
51249;BME280;39642;47.556;18.728;2023-04-05T10:54:42;99803.97;;;20.50;23.21
51249;BME280;39642;47.556;18.728;2023-04-05T10:57:09;99803.97;;;20.50;23.25
51249;BME280;39642;47.556;18.728;2023-04-05T10:59:41;99799.53;;;20.50;23.21
51249;BME280;39642;47.556;18.728;2023-04-05T11:02:07;99800.38;;;20.51;23.10
51249;BME280;39642;47.556;18.728;2023-04-05T11:04:33;99798.69;;;20.50;23.12
51249;BME280;39642;47.556;18.728;2023-04-05T11:07:16;99797.72;;;20.51;23.13
51249;BME280;39642;47.556;18.728;2023-04-05T11:09:59;99799.53;;;20.50;23.10
51249;BME280;39642;47.556;18.728;2023-04-05T11:20:41;99784.44;;;20.52;23.04
51249;BME280;39642;47.556;18.728;2023-04-05T11:23:08;99787.16;;;20.51;23.02
51249;BME280;39642;47.556;18.728;2023-04-05T11:25:39;99779.13;;;20.52;23.10
51249;BME280;39642;47.556;18.728;2023-04-05T11:28:06;99789.63;;;20.54;22.94
51249;BME280;39642;47.556;18.728;2023-04-05T11:30:50;99785.28;;;20.53;23.06
51249;BME280;39642;47.556;18.728;2023-04-05T11:33:36;99784.44;;;20.52;23.05
51249;BME280;39642;47.556;18.728;2023-04-05T11:36:02;99781.78;;;20.52;22.95
51249;BME280;39642;47.556;18.728;2023-04-05T11:38:28;99782.63;;;20.53;22.79
51249;BME280;39642;47.556;18.728;2023-04-05T11:41:23;99774.63;;;20.54;22.82
51249;BME280;39642;47.556;18.728;2023-04-05T11:43:50;99775.47;;;20.55;22.96
51249;BME280;39642;47.556;18.728;2023-04-05T11:46:18;99772.81;;;20.55;23.07
51249;BME280;39642;47.556;18.728;2023-04-05T11:48:50;99773.78;;;20.54;23.17
51249;BME280;39642;47.556;18.728;2023-04-05T11:51:17;99773.78;;;20.54;23.20
51249;BME280;39642;47.556;18.728;2023-04-05T11:53:45;99773.78;;;20.54;23.23
51249;BME280;39642;47.556;18.728;2023-04-05T11:56:11;99768.56;;;20.52;23.20
51249;BME280;39642;47.556;18.728;2023-04-05T11:58:41;99758.94;;;20.51;23.21
51249;BME280;39642;47.556;18.728;2023-04-05T12:01:07;99759.00;;;20.50;23.26
51249;BME280;39642;47.556;18.728;2023-04-05T12:03:36;99754.66;;;20.49;23.28
51249;BME280;39642;47.556;18.728;2023-04-05T12:06:04;99752.88;;;20.49;23.17
51249;BME280;39642;47.556;18.728;2023-04-05T12:11:06;99749.34;;;20.49;23.12
51249;BME280;39642;47.556;18.728;2023-04-05T12:13:33;99744.94;;;20.49;23.17
51249;BME280;39642;47.556;18.728;2023-04-05T12:16:04;99751.06;;;20.50;23.14
51249;BME280;39642;47.556;18.728;2023-04-05T12:18:34;99743.22;;;20.48;23.03
51249;BME280;39642;47.556;18.728;2023-04-05T12:21:02;99745.88;;;20.48;23.11
51249;BME280;39642;47.556;18.728;2023-04-05T12:23:28;99736.13;;;20.49;23.10
51249;BME280;39642;47.556;18.728;2023-04-05T12:25:54;99738.78;;;20.49;23.18
51249;BME280;39642;47.556;18.728;2023-04-05T12:28:21;99739.66;;;20.49;23.13
51249;BME280;39642;47.556;18.728;2023-04-05T12:30:55;99743.16;;;20.50;22.91
51249;BME280;39642;47.556;18.728;2023-04-05T12:33:28;99738.78;;;20.49;23.02
51249;BME280;39642;47.556;18.728;2023-04-05T12:35:55;99734.37;;;20.49;22.96
51249;BME280;39642;47.556;18.728;2023-04-05T12:38:25;99735.22;;;20.50;23.11
51249;BME280;39642;47.556;18.728;2023-04-05T12:41:02;99735.22;;;20.50;22.97
51249;BME280;39642;47.556;18.728;2023-04-05T12:43:41;99727.28;;;20.50;22.98
51249;BME280;39642;47.556;18.728;2023-04-05T12:46:11;99719.34;;;20.50;23.06
51249;BME280;39642;47.556;18.728;2023-04-05T12:48:41;99731.59;;;20.51;23.04
51249;BME280;39642;47.556;18.728;2023-04-05T12:51:14;99724.63;;;20.50;22.90
51249;BME280;39642;47.556;18.728;2023-04-05T12:53:45;99723.78;;;20.49;23.21
51249;BME280;39642;47.556;18.728;2023-04-05T12:56:14;99727.28;;;20.50;23.21
51249;BME280;39642;47.556;18.728;2023-04-05T12:58:40;99723.78;;;20.49;23.02
51249;BME280;39642;47.556;18.728;2023-04-05T13:01:07;99717.63;;;20.49;23.27
51249;BME280;39642;47.556;18.728;2023-04-05T13:03:32;99718.50;;;20.49;23.12
51249;BME280;39642;47.556;18.728;2023-04-05T13:05:58;99709.69;;;20.49;23.14
51249;BME280;39642;47.556;18.728;2023-04-05T13:08:24;99709.69;;;20.49;23.29
51249;BME280;39642;47.556;18.728;2023-04-05T13:10:52;99712.34;;;20.49;23.26
51249;BME280;39642;47.556;18.728;2023-04-05T13:13:18;99708.00;;;20.48;23.24
51249;BME280;39642;47.556;18.728;2023-04-05T13:15:47;99708.00;;;20.48;23.24
51249;BME280;39642;47.556;18.728;2023-04-05T13:18:13;99710.63;;;20.48;23.15
51249;BME280;39642;47.556;18.728;2023-04-05T13:20:41;99702.78;;;20.46;23.20
51249;BME280;39642;47.556;18.728;2023-04-05T13:23:07;99705.34;;;20.48;23.18
51249;BME280;39642;47.556;18.728;2023-04-05T13:25:37;99705.34;;;20.48;23.27
51249;BME280;39642;47.556;18.728;2023-04-05T13:28:03;99707.91;;;20.49;23.17